Dawson, North Dakota
Current Conditions -  °F | °C
As of 10:13 PM on Wednesday 28 Jan 2015 (Local Time) from KBIS Reporting Station
Overcast Overcast  
Wind Chill: -6°   Ceiling: 1600
Heat Index:   Visibility: 10mi
Dew Point: -2°   Wind: 20mph
Humidity: 82%   Direction: 330°NNW
Pressure: 30.19"   Gusts: 29mph
Location:  46.87°N, 99.75°W
Report Text: KBIS 290413Z AUTO 33017G25KT 10SM OVC016 01/M02 A3019 RMK AO2 PK WND 34028/0401 T00061022
Loading
Personal Weather Stations






























Interactive Weather Map New forecast layout! Learn more

10-Day Weather Forecast

Advertisements
Track Severe Weather on mobile